Time,TemperatureF,DewpointF,PressureIn,WindDirection,WindDirectionDegrees,WindSpeedMPH,WindSpeedGustMPH,Humidity,HourlyPrecipIn,Conditions,Clouds,dailyrainin,SoftwareType,DateUTC
2013-04-11 00:02:00,39.2,38.7,28.73,ENE,68,0.0,0.0,98,0.00,,---,0.00,VWS V14.01,2013-04-11 05:02:00,
2013-04-11 00:07:00,39.2,38.7,28.73,NE,45,0.0,1.6,98,0.00,,---,0.00,VWS V14.01,2013-04-11 05:07:00,
2013-04-11 00:12:00,39.2,38.7,28.73,East,90,1.6,2.0,98,0.00,,---,0.00,VWS V14.01,2013-04-11 05:12:00,
2013-04-11 00:17:00,39.2,38.7,28.76,East,90,1.1,1.1,98,0.00,,---,0.00,VWS V14.01,2013-04-11 05:17:00,
2013-04-11 00:22:00,39.2,38.7,28.76,East,90,0.0,0.0,98,0.00,,---,0.00,VWS V14.01,2013-04-11 05:22:00,
2013-04-11 00:27:00,39.2,38.7,28.76,ENE,68,0.0,1.1,98,0.00,,---,0.00,VWS V14.01,2013-04-11 05:27:00,
2013-04-11 00:32:00,39.2,38.7,28.73,ENE,68,0.0,1.3,98,0.00,,---,0.00,VWS V14.01,2013-04-11 05:32:00,
2013-04-11 00:37:00,39.2,38.7,28.73,ENE,68,0.0,0.9,98,0.00,,---,0.00,VWS V14.01,2013-04-11 05:37:00,
2013-04-11 00:42:00,39.0,38.5,28.73,ENE,68,0.0,1.6,98,0.00,,---,0.00,VWS V14.01,2013-04-11 05:42:00,
2013-04-11 00:47:00,39.2,38.7,28.73,South,180,0.0,0.0,98,0.00,,---,0.00,VWS V14.01,2013-04-11 05:47:00,
2013-04-11 00:52:00,39.0,38.5,28.73,East,90,1.3,2.0,98,0.00,,---,0.00,VWS V14.01,2013-04-11 05:52:00,
2013-04-11 00:57:00,39.0,38.5,28.73,ENE,68,3.8,3.8,98,0.00,,---,0.00,VWS V14.01,2013-04-11 05:57:00,
2013-04-11 01:02:00,39.0,38.5,28.73,ESE,112,0.0,2.0,98,0.00,,---,0.00,VWS V14.01,2013-04-11 06:02:00,
2013-04-11 01:07:00,39.0,38.5,28.73,West,270,0.0,0.0,98,0.00,,---,0.00,VWS V14.01,2013-04-11 06:07:00,
2013-04-11 01:13:00,39.0,38.5,28.73,East,90,2.5,2.9,98,0.00,,---,0.00,VWS V14.01,2013-04-11 06:13:00,
2013-04-11 01:18:00,39.0,38.5,28.70,ENE,68,2.0,2.0,98,0.00,,---,0.00,VWS V14.01,2013-04-11 06:18:00,
2013-04-11 01:23:00,39.0,38.5,28.70,ENE,68,1.1,1.1,98,0.00,,---,0.00,VWS V14.01,2013-04-11 06:23:00,
2013-04-11 01:28:00,39.0,38.5,28.70,SSE,158,1.1,1.1,98,0.00,,---,0.00,VWS V14.01,2013-04-11 06:28:00,
2013-04-11 01:33:00,38.8,38.3,28.70,ENE,68,1.3,1.6,98,0.00,,---,0.00,VWS V14.01,2013-04-11 06:33:00,
2013-04-11 01:38:00,38.8,38.3,28.70,East,90,2.9,2.9,98,0.00,,---,0.00,VWS V14.01,2013-04-11 06:38:00,
2013-04-11 01:43:00,38.8,38.3,28.73,East,90,0.0,0.0,98,0.00,,---,0.00,VWS V14.01,2013-04-11 06:43:00,
2013-04-11 01:48:00,38.8,38.3,28.73,NE,45,0.0,0.0,98,0.00,,---,0.00,VWS V14.01,2013-04-11 06:48:00,
2013-04-11 01:53:00,38.8,38.3,28.73,East,90,0.0,0.0,98,0.00,,---,0.00,VWS V14.01,2013-04-11 06:53:00,
2013-04-11 01:58:00,38.8,38.3,28.70,ENE,68,0.0,1.1,98,0.00,,---,0.00,VWS V14.01,2013-04-11 06:58:00,
2013-04-11 02:03:00,38.8,38.3,28.70,ENE,68,0.0,0.0,98,0.00,,---,0.00,VWS V14.01,2013-04-11 07:03:00,
2013-04-11 02:08:00,38.8,38.3,28.70,ENE,68,0.0,0.0,98,0.00,,---,0.00,VWS V14.01,2013-04-11 07:08:00,
2013-04-11 02:13:00,39.0,38.5,28.70,ENE,68,0.0,0.0,98,0.00,,---,0.00,VWS V14.01,2013-04-11 07:13:00,
2013-04-11 02:18:00,39.0,38.5,28.70,ENE,68,0.0,0.0,98,0.00,,---,0.00,VWS V14.01,2013-04-11 07:18:00,
2013-04-11 02:23:00,39.0,38.5,28.70,WSW,248,0.0,0.0,98,0.00,,---,0.00,VWS V14.01,2013-04-11 07:23:00,
2013-04-11 02:28:00,39.0,38.5,28.70,WSW,248,0.0,0.0,98,0.00,,---,0.00,VWS V14.01,2013-04-11 07:28:00,
2013-04-11 02:33:00,39.0,38.5,28.70,WSW,248,0.0,0.0,98,0.00,,---,0.00,VWS V14.01,2013-04-11 07:33:00,
2013-04-11 02:38:00,39.0,38.5,28.70,West,270,0.0,0.0,98,0.00,,---,0.00,VWS V14.01,2013-04-11 07:38:00,
2013-04-11 02:43:00,39.0,38.5,28.70,West,270,0.0,0.0,98,0.00,,---,0.00,VWS V14.01,2013-04-11 07:43:00,
2013-04-11 02:48:00,39.0,38.5,28.70,West,270,0.0,0.0,98,0.00,,---,0.00,VWS V14.01,2013-04-11 07:48:00,
2013-04-11 02:54:00,39.0,38.5,28.70,West,270,0.0,0.0,98,0.00,,---,0.00,VWS V14.01,2013-04-11 07:54:00,
2013-04-11 02:59:00,39.0,38.5,28.70,West,270,0.0,0.0,98,0.00,,---,0.00,VWS V14.01,2013-04-11 07:59:00,
2013-04-11 03:04:00,39.0,38.5,28.70,West,270,0.0,0.0,98,0.00,,---,0.00,VWS V14.01,2013-04-11 08:04:00,
2013-04-11 03:09:00,39.0,38.5,28.70,West,270,0.0,0.0,98,0.00,,---,0.00,VWS V14.01,2013-04-11 08:09:00,
2013-04-11 03:14:00,39.0,38.5,28.70,WNW,292,0.0,0.0,98,0.00,,---,0.00,VWS V14.01,2013-04-11 08:14:00,
2013-04-11 03:19:00,39.0,38.5,28.70,WNW,292,0.0,0.0,98,0.00,,---,0.00,VWS V14.01,2013-04-11 08:19:00,
2013-04-11 03:24:00,39.0,38.5,28.70,WNW,292,0.0,0.0,98,0.00,,---,0.00,VWS V14.01,2013-04-11 08:24:00,
2013-04-11 03:29:00,39.0,38.5,28.70,WNW,292,0.0,0.0,98,0.00,,---,0.00,VWS V14.01,2013-04-11 08:29:00,
2013-04-11 03:34:00,39.0,38.5,28.70,WNW,292,0.0,0.0,98,0.00,,---,0.00,VWS V14.01,2013-04-11 08:34:00,
2013-04-11 03:39:00,39.0,38.5,28.70,WNW,292,0.0,0.0,98,0.00,,---,0.00,VWS V14.01,2013-04-11 08:39:00,
2013-04-11 03:44:00,38.8,38.3,28.70,WNW,292,0.0,0.0,98,0.00,,---,0.00,VWS V14.01,2013-04-11 08:44:00,
2013-04-11 03:49:00,38.8,38.3,28.70,WNW,292,0.0,0.0,98,0.00,,---,0.00,VWS V14.01,2013-04-11 08:49:00,
2013-04-11 03:55:00,39.0,38.5,28.70,WNW,292,0.0,0.0,98,0.00,,---,0.00,VWS V14.01,2013-04-11 08:55:00,
2013-04-11 04:00:00,39.0,38.5,28.67,WNW,292,0.0,0.0,98,0.00,,---,0.00,VWS V14.01,2013-04-11 09:00:00,
2013-04-11 04:05:00,39.0,38.5,28.67,WNW,292,0.0,0.0,98,0.00,,---,0.00,VWS V14.01,2013-04-11 09:05:00,
2013-04-11 04:10:00,38.8,38.3,28.67,WNW,292,0.0,0.0,98,0.00,,---,0.00,VWS V14.01,2013-04-11 09:10:00,
2013-04-11 04:15:00,38.8,38.3,28.67,WNW,292,0.0,0.0,98,0.00,,---,0.00,VWS V14.01,2013-04-11 09:15:00,
2013-04-11 04:20:00,38.8,38.3,28.67,West,270,0.0,0.0,98,0.00,,---,0.00,VWS V14.01,2013-04-11 09:20:00,
2013-04-11 04:25:00,38.8,38.3,28.67,WSW,248,1.3,1.3,98,0.00,,---,0.00,VWS V14.01,2013-04-11 09:25:00,
2013-04-11 04:30:00,38.8,38.3,28.64,SW,225,0.9,1.3,98,0.00,,---,0.00,VWS V14.01,2013-04-11 09:30:00,
2013-04-11 04:35:00,38.8,38.3,28.64,WSW,248,0.0,0.0,98,0.00,,---,0.00,VWS V14.01,2013-04-11 09:35:00,
2013-04-11 04:40:00,38.8,38.3,28.64,WSW,248,2.0,2.0,98,0.00,,---,0.00,VWS V14.01,2013-04-11 09:40:00,
2013-04-11 04:45:00,38.8,38.3,28.61,WNW,292,1.1,1.1,98,0.00,,---,0.00,VWS V14.01,2013-04-11 09:45:00,
2013-04-11 04:50:00,38.7,38.2,28.61,WSW,248,0.0,0.0,98,0.00,,---,0.00,VWS V14.01,2013-04-11 09:50:00,
2013-04-11 04:55:00,38.7,38.2,28.61,WSW,248,1.3,2.9,98,0.00,,---,0.00,VWS V14.01,2013-04-11 09:55:00,
2013-04-11 05:00:00,38.7,38.2,28.64,WSW,248,0.0,0.0,98,0.00,,---,0.00,VWS V14.01,2013-04-11 10:00:00,
2013-04-11 05:05:00,38.7,38.2,28.64,East,90,0.0,0.0,98,0.00,,---,0.00,VWS V14.01,2013-04-11 10:05:00,
2013-04-11 05:10:00,38.7,38.2,28.64,East,90,0.0,2.0,98,0.00,,---,0.00,VWS V14.01,2013-04-11 10:10:00,
2013-04-11 05:15:00,38.7,38.2,28.61,East,90,0.0,2.0,98,0.00,,---,0.00,VWS V14.01,2013-04-11 10:15:00,
2013-04-11 05:20:00,38.5,38.0,28.61,ENE,68,0.0,0.0,98,0.00,,---,0.00,VWS V14.01,2013-04-11 10:20:00,
2013-04-11 05:26:00,38.5,38.0,28.61,ENE,68,0.0,0.0,98,0.00,,---,0.00,VWS V14.01,2013-04-11 10:26:00,
2013-04-11 05:31:00,38.5,38.0,28.64,ENE,68,2.2,2.2,98,0.00,,---,0.00,VWS V14.01,2013-04-11 10:31:00,
2013-04-11 05:36:00,38.5,38.0,28.64,ENE,68,0.0,0.0,98,0.00,,---,0.00,VWS V14.01,2013-04-11 10:36:00,
2013-04-11 05:41:00,38.5,38.0,28.64,East,90,1.3,1.3,98,0.00,,---,0.00,VWS V14.01,2013-04-11 10:41:00,
2013-04-11 05:46:00,38.5,38.0,28.64,ENE,68,0.9,0.9,98,0.00,,---,0.00,VWS V14.01,2013-04-11 10:46:00,
2013-04-11 05:51:00,38.5,38.0,28.64,ENE,68,0.0,0.0,98,0.00,,---,0.00,VWS V14.01,2013-04-11 10:51:00,
2013-04-11 05:56:00,38.5,38.0,28.64,ENE,68,0.0,0.9,98,0.00,,---,0.00,VWS V14.01,2013-04-11 10:56:00,
2013-04-11 06:01:00,38.5,38.0,28.64,ENE,68,0.0,0.0,98,0.00,,---,0.00,VWS V14.01,2013-04-11 11:01:00,
2013-04-11 06:06:00,38.5,38.0,28.64,NE,45,0.0,0.0,98,0.00,,---,0.00,VWS V14.01,2013-04-11 11:06:00,
2013-04-11 06:11:00,38.5,38.0,28.64,NE,45,0.0,0.0,98,0.00,,---,0.00,VWS V14.01,2013-04-11 11:11:00,
2013-04-11 06:16:00,38.5,38.0,28.64,NE,45,0.0,0.0,98,0.00,,---,0.00,VWS V14.01,2013-04-11 11:16:00,
2013-04-11 06:22:00,38.5,38.0,28.64,NE,45,0.0,0.0,98,0.00,,---,0.00,VWS V14.01,2013-04-11 11:22:00,
2013-04-11 06:27:00,38.5,38.0,28.64,NE,45,0.0,0.0,98,0.00,,---,0.00,VWS V14.01,2013-04-11 11:27:00,
2013-04-11 06:32:00,38.5,38.0,28.64,NE,45,0.0,0.0,98,0.00,,---,0.00,VWS V14.01,2013-04-11 11:32:00,
2013-04-11 06:37:00,38.5,38.0,28.64,NE,45,0.0,0.0,98,0.00,,---,0.00,VWS V14.01,2013-04-11 11:37:00,
2013-04-11 06:42:00,38.5,38.0,28.64,NE,45,0.0,0.0,98,0.00,,---,0.00,VWS V14.01,2013-04-11 11:42:00,
2013-04-11 06:47:00,38.5,38.0,28.64,NE,45,0.0,0.0,98,0.00,,---,0.00,VWS V14.01,2013-04-11 11:47:00,
2013-04-11 06:52:00,38.5,38.0,28.64,NE,45,0.0,0.0,98,0.00,,---,0.00,VWS V14.01,2013-04-11 11:52:00,
2013-04-11 06:57:00,38.5,38.0,28.64,NE,45,0.0,0.0,98,0.00,,---,0.00,VWS V14.01,2013-04-11 11:57:00,
2013-04-11 07:02:00,38.5,38.0,28.61,NE,45,0.0,0.0,98,0.00,,---,0.00,VWS V14.01,2013-04-11 12:02:00,
2013-04-11 07:07:00,38.5,38.0,28.61,NE,45,0.0,0.0,98,0.00,,---,0.00,VWS V14.01,2013-04-11 12:07:00,
2013-04-11 07:12:00,38.5,38.0,28.61,NE,45,0.0,0.0,98,0.00,,---,0.00,VWS V14.01,2013-04-11 12:12:00,
2013-04-11 07:17:00,38.7,38.2,28.64,NE,45,0.0,0.0,98,0.00,,---,0.00,VWS V14.01,2013-04-11 12:17:00,
2013-04-11 07:22:00,38.7,38.2,28.64,NE,45,0.0,0.0,98,0.00,,---,0.00,VWS V14.01,2013-04-11 12:22:00,
2013-04-11 07:27:00,38.8,38.3,28.64,NE,45,0.0,0.0,98,0.00,,---,0.00,VWS V14.01,2013-04-11 12:27:00,
2013-04-11 07:32:00,38.8,38.3,28.64,NE,45,0.0,1.1,98,0.00,,---,0.00,VWS V14.01,2013-04-11 12:32:00,
2013-04-11 07:37:00,38.8,38.3,28.64,NE,45,0.0,0.0,98,0.00,,---,0.00,VWS V14.01,2013-04-11 12:37:00,
2013-04-11 07:42:00,38.8,38.3,28.64,NE,45,0.0,0.0,98,0.00,,---,0.00,VWS V14.01,2013-04-11 12:42:00,
2013-04-11 07:48:00,39.0,38.5,28.64,NE,45,0.0,0.0,98,0.00,,---,0.00,VWS V14.01,2013-04-11 12:48:00,
2013-04-11 07:53:00,39.0,38.5,28.64,ENE,68,0.9,1.6,98,0.00,,---,0.00,VWS V14.01,2013-04-11 12:53:00,
2013-04-11 07:58:00,39.0,38.5,28.64,ENE,68,0.0,0.0,98,0.00,,---,0.00,VWS V14.01,2013-04-11 12:58:00,
2013-04-11 08:03:00,39.2,38.7,28.64,ENE,68,0.0,0.0,98,0.00,,---,0.00,VWS V14.01,2013-04-11 13:03:00,
2013-04-11 08:08:00,39.2,38.7,28.64,ENE,68,0.0,0.0,98,0.00,,---,0.00,VWS V14.01,2013-04-11 13:08:00,
2013-04-11 08:13:00,39.4,38.9,28.64,ENE,68,0.0,0.0,98,0.00,,---,0.00,VWS V14.01,2013-04-11 13:13:00,
2013-04-11 08:18:00,39.4,38.9,28.64,ENE,68,1.6,1.6,98,0.00,,---,0.00,VWS V14.01,2013-04-11 13:18:00,
2013-04-11 08:23:00,39.4,38.9,28.64,ENE,68,0.0,0.9,98,0.00,,---,0.00,VWS V14.01,2013-04-11 13:23:00,
2013-04-11 08:28:00,39.4,38.9,28.67,ENE,68,0.0,0.0,98,0.00,,---,0.00,VWS V14.01,2013-04-11 13:28:00,
2013-04-11 08:33:00,39.6,39.0,28.67,ENE,68,0.0,1.6,98,0.00,,---,0.00,VWS V14.01,2013-04-11 13:33:00,
2013-04-11 08:38:00,39.7,39.2,28.67,ENE,68,0.0,0.0,98,0.00,,---,0.00,VWS V14.01,2013-04-11 13:38:00,
2013-04-11 08:44:00,39.9,39.4,28.64,NE,45,0.0,0.0,98,0.00,,---,0.00,VWS V14.01,2013-04-11 13:44:00,
2013-04-11 08:49:00,40.1,39.6,28.64,NE,45,0.0,0.0,98,0.00,,---,0.00,VWS V14.01,2013-04-11 13:49:00,
2013-04-11 08:54:00,40.1,39.6,28.64,NE,45,0.0,0.0,98,0.00,,---,0.00,VWS V14.01,2013-04-11 13:54:00,
2013-04-11 08:59:00,40.3,39.8,28.64,ENE,68,0.0,0.0,98,0.00,,---,0.00,VWS V14.01,2013-04-11 13:59:00,
2013-04-11 09:04:00,40.6,40.1,28.64,ENE,68,0.0,0.0,98,0.00,,---,0.00,VWS V14.01,2013-04-11 14:04:00,
2013-04-11 09:09:00,40.6,40.1,28.64,NW,315,0.0,0.0,98,0.00,,---,0.00,VWS V14.01,2013-04-11 14:09:00,
2013-04-11 09:14:00,41.0,40.5,28.64,NW,315,0.0,0.0,98,0.00,,---,0.00,VWS V14.01,2013-04-11 14:14:00,
2013-04-11 09:19:00,41.2,40.7,28.64,NW,315,0.0,0.0,98,0.00,,---,0.00,VWS V14.01,2013-04-11 14:19:00,
2013-04-11 09:24:00,41.2,40.7,28.64,NW,315,0.0,0.0,98,0.00,,---,0.00,VWS V14.01,2013-04-11 14:24:00,
2013-04-11 09:29:00,41.2,40.7,28.61,NW,315,0.0,0.0,98,0.00,,---,0.00,VWS V14.01,2013-04-11 14:29:00,
2013-04-11 09:34:00,41.0,40.5,28.61,NW,315,0.0,0.0,98,0.00,,---,0.00,VWS V14.01,2013-04-11 14:34:00,
2013-04-11 09:40:00,41.5,41.0,28.61,WNW,292,2.0,2.0,98,0.00,,---,0.00,VWS V14.01,2013-04-11 14:40:00,
2013-04-11 09:45:00,41.2,40.7,28.64,NW,315,1.6,2.0,98,0.00,,---,0.00,VWS V14.01,2013-04-11 14:45:00,
2013-04-11 09:50:00,41.0,40.5,28.64,WNW,292,1.6,1.6,98,0.00,,---,0.00,VWS V14.01,2013-04-11 14:50:00,
2013-04-11 09:55:00,41.5,41.0,28.64,WNW,292,0.0,0.0,98,0.00,,---,0.00,VWS V14.01,2013-04-11 14:55:00,
2013-04-11 10:00:00,41.7,41.2,28.61,East,90,2.0,2.0,98,0.00,,---,0.00,VWS V14.01,2013-04-11 15:00:00,
2013-04-11 10:05:00,41.7,41.2,28.61,WNW,292,1.1,1.6,98,0.00,,---,0.00,VWS V14.01,2013-04-11 15:05:00,
2013-04-11 10:10:00,41.7,41.2,28.61,WNW,292,1.3,1.3,98,0.00,,---,0.00,VWS V14.01,2013-04-11 15:10:00,
2013-04-11 10:15:00,41.5,41.0,28.64,WNW,292,2.0,2.0,98,0.00,,---,0.00,VWS V14.01,2013-04-11 15:15:00,
2013-04-11 10:20:00,41.5,41.0,28.64,WNW,292,1.3,1.6,98,0.00,,---,0.00,VWS V14.01,2013-04-11 15:20:00,
2013-04-11 10:25:00,41.2,40.7,28.64,WNW,292,2.5,2.5,98,0.00,,---,0.00,VWS V14.01,2013-04-11 15:25:00,
2013-04-11 10:30:00,41.5,41.0,28.64,WNW,292,2.0,2.0,98,0.00,,---,0.00,VWS V14.01,2013-04-11 15:30:00,
2013-04-11 10:35:00,41.5,41.0,28.64,NW,315,1.6,1.6,98,0.00,,---,0.00,VWS V14.01,2013-04-11 15:35:00,
2013-04-11 10:40:00,41.7,41.2,28.64,WNW,292,0.0,0.0,98,0.00,,---,0.00,VWS V14.01,2013-04-11 15:40:00,
2013-04-11 10:45:00,42.1,41.6,28.64,NW,315,1.1,2.0,98,0.00,,---,0.00,VWS V14.01,2013-04-11 15:45:00,
2013-04-11 10:50:00,42.1,41.6,28.64,WNW,292,1.6,2.5,98,0.00,,---,0.00,VWS V14.01,2013-04-11 15:50:00,
2013-04-11 10:55:00,42.1,41.3,28.64,WNW,292,1.6,1.6,97,0.00,,---,0.00,VWS V14.01,2013-04-11 15:55:00,
2013-04-11 11:00:00,41.7,40.4,28.61,WNW,292,1.6,1.6,95,0.00,,---,0.00,VWS V14.01,2013-04-11 16:00:00,
2013-04-11 11:05:00,42.1,40.8,28.61,WNW,292,2.2,2.2,95,0.00,,---,0.00,VWS V14.01,2013-04-11 16:05:00,
2013-04-11 11:11:00,41.7,39.6,28.61,NW,315,1.6,2.9,92,0.00,,---,0.00,VWS V14.01,2013-04-11 16:11:00,
2013-04-11 11:16:00,42.1,39.9,28.61,WNW,292,1.3,2.0,92,0.00,,---,0.00,VWS V14.01,2013-04-11 16:16:00,
2013-04-11 11:21:00,42.1,39.4,28.61,WNW,292,2.0,2.2,90,0.00,,---,0.00,VWS V14.01,2013-04-11 16:21:00,
2013-04-11 11:26:00,42.1,39.4,28.61,WSW,248,1.3,1.3,90,0.00,,---,0.00,VWS V14.01,2013-04-11 16:26:00,
2013-04-11 11:32:00,41.7,38.4,28.61,NNE,22,1.6,1.6,88,0.00,,---,0.00,VWS V14.01,2013-04-11 16:32:00,
2013-04-11 11:37:00,41.7,38.4,28.61,WNW,292,0.0,0.0,88,0.00,,---,0.00,VWS V14.01,2013-04-11 16:37:00,
2013-04-11 11:42:00,41.5,38.0,28.61,WNW,292,0.0,2.7,87,0.00,,---,0.00,VWS V14.01,2013-04-11 16:42:00,
2013-04-11 11:47:00,41.4,37.8,28.61,West,270,2.0,2.0,87,0.00,,---,0.00,VWS V14.01,2013-04-11 16:47:00,
2013-04-11 11:52:00,41.0,37.1,28.61,WNW,292,1.6,1.6,86,0.00,,---,0.00,VWS V14.01,2013-04-11 16:52:00,
2013-04-11 11:57:00,40.6,36.8,28.61,WNW,292,2.5,2.5,86,0.00,,---,0.00,VWS V14.01,2013-04-11 16:57:00,
2013-04-11 12:02:00,40.6,37.1,28.61,WNW,292,2.5,3.6,87,0.00,,---,0.00,VWS V14.01,2013-04-11 17:02:00,
2013-04-11 12:07:00,40.5,36.9,28.61,NNW,338,2.7,2.7,87,0.00,,---,0.00,VWS V14.01,2013-04-11 17:07:00,
2013-04-11 12:12:00,40.3,37.0,28.61,WNW,292,2.5,2.9,88,0.00,,---,0.00,VWS V14.01,2013-04-11 17:12:00,
2013-04-11 12:17:00,40.5,37.8,28.61,WNW,292,3.1,3.1,90,0.00,,---,0.00,VWS V14.01,2013-04-11 17:17:00,
2013-04-11 12:23:00,40.6,38.2,28.61,WNW,292,2.0,2.9,91,0.00,,---,0.00,VWS V14.01,2013-04-11 17:23:00,
2013-04-11 12:28:00,40.6,38.5,28.61,NW,315,3.1,3.1,92,0.00,,---,0.00,VWS V14.01,2013-04-11 17:28:00,
2013-04-11 12:33:00,40.6,38.2,28.64,WNW,292,1.3,2.2,91,0.00,,---,0.00,VWS V14.01,2013-04-11 17:33:00,
2013-04-11 12:38:00,41.4,39.5,28.64,WNW,292,2.0,2.0,93,0.00,,---,0.00,VWS V14.01,2013-04-11 17:38:00,
2013-04-11 12:43:00,41.5,39.4,28.64,NNW,338,1.6,1.6,92,0.00,,---,0.00,VWS V14.01,2013-04-11 17:43:00,
2013-04-11 12:48:00,41.5,38.8,28.64,WNW,292,2.0,2.0,90,0.00,,---,0.00,VWS V14.01,2013-04-11 17:48:00,
2013-04-11 12:53:00,42.3,40.1,28.64,WNW,292,1.1,1.3,92,0.00,,---,0.00,VWS V14.01,2013-04-11 17:53:00,
2013-04-11 12:58:00,41.7,39.0,28.64,WSW,248,2.9,4.3,90,0.00,,---,0.00,VWS V14.01,2013-04-11 17:58:00,
2013-04-11 13:03:00,41.7,38.7,28.64,WNW,292,1.1,1.1,89,0.00,,---,0.00,VWS V14.01,2013-04-11 18:03:00,
2013-04-11 13:08:00,41.7,38.7,28.64,WNW,292,1.1,2.0,89,0.00,,---,0.00,VWS V14.01,2013-04-11 18:08:00,
2013-04-11 13:13:00,41.4,37.8,28.61,NW,315,1.3,1.3,87,0.00,,---,0.00,VWS V14.01,2013-04-11 18:13:00,
2013-04-11 13:18:00,41.4,37.8,28.61,WNW,292,2.5,2.5,87,0.00,,---,0.00,VWS V14.01,2013-04-11 18:18:00,
2013-04-11 13:23:00,41.5,37.7,28.61,WNW,292,2.0,2.9,86,0.00,,---,0.00,VWS V14.01,2013-04-11 18:23:00,
2013-04-11 13:28:00,41.2,37.3,28.64,NNW,338,1.1,1.3,86,0.00,,---,0.00,VWS V14.01,2013-04-11 18:28:00,
2013-04-11 13:34:00,40.3,35.8,28.64,NW,315,1.3,1.3,84,0.00,,---,0.00,VWS V14.01,2013-04-11 18:34:00,
2013-04-11 13:39:00,40.3,36.7,28.64,WNW,292,2.0,2.5,87,0.00,,---,0.00,VWS V14.01,2013-04-11 18:39:00,
2013-04-11 13:44:00,40.3,36.7,28.64,ENE,68,2.0,2.0,87,0.00,,---,0.00,VWS V14.01,2013-04-11 18:44:00,
2013-04-11 13:49:00,40.1,36.8,28.64,WNW,292,1.3,5.4,88,0.00,,---,0.00,VWS V14.01,2013-04-11 18:49:00,
2013-04-11 13:54:00,40.6,38.2,28.64,NW,315,3.8,3.8,91,0.00,,---,0.00,VWS V14.01,2013-04-11 18:54:00,
2013-04-11 13:59:00,40.1,36.8,28.64,WNW,292,1.3,2.5,88,0.00,,---,0.00,VWS V14.01,2013-04-11 18:59:00,
2013-04-11 14:04:00,39.9,36.7,28.64,WNW,292,2.9,2.9,88,0.00,,---,0.00,VWS V14.01,2013-04-11 19:04:00,
2013-04-11 14:09:00,39.7,36.8,28.64,WNW,292,1.6,2.5,89,0.00,,---,0.00,VWS V14.01,2013-04-11 19:09:00,
2013-04-11 14:14:00,39.4,36.7,28.64,NNW,338,2.5,2.5,90,0.00,,---,0.00,VWS V14.01,2013-04-11 19:14:00,
2013-04-11 14:19:00,39.6,37.2,28.64,WNW,292,2.9,2.9,91,0.00,,---,0.00,VWS V14.01,2013-04-11 19:19:00,
2013-04-11 14:24:00,39.4,37.2,28.64,WNW,292,2.7,2.7,92,0.00,,---,0.00,VWS V14.01,2013-04-11 19:24:00,
2013-04-11 14:29:00,39.2,37.1,28.64,WNW,292,1.1,2.0,92,0.00,,---,0.00,VWS V14.01,2013-04-11 19:29:00,
2013-04-11 14:34:00,39.2,37.1,28.64,WNW,292,2.9,2.9,92,0.00,,---,0.00,VWS V14.01,2013-04-11 19:34:00,
2013-04-11 14:39:00,39.0,36.6,28.64,WNW,292,3.4,4.0,91,0.00,,---,0.00,VWS V14.01,2013-04-11 19:39:00,
2013-04-11 14:45:00,38.7,35.7,28.64,NW,315,4.3,4.3,89,0.00,,---,0.00,VWS V14.01,2013-04-11 19:45:00,
2013-04-11 14:50:00,38.3,35.1,28.64,WNW,292,3.8,3.8,88,0.00,,---,0.00,VWS V14.01,2013-04-11 19:50:00,
2013-04-11 14:55:00,38.5,35.8,28.64,NW,315,2.7,2.7,90,0.00,,---,0.00,VWS V14.01,2013-04-11 19:55:00,
2013-04-11 15:00:00,38.7,36.3,28.64,NW,315,4.0,4.0,91,0.00,,---,0.00,VWS V14.01,2013-04-11 20:00:00,
2013-04-11 15:05:00,38.5,35.2,28.64,WNW,292,2.0,2.0,88,0.00,,---,0.00,VWS V14.01,2013-04-11 20:05:00,
2013-04-11 15:10:00,38.8,36.2,28.64,WNW,292,2.9,2.9,90,0.00,,---,0.00,VWS V14.01,2013-04-11 20:10:00,
2013-04-11 15:15:00,38.8,35.3,28.64,WNW,292,1.3,1.6,87,0.00,,---,0.00,VWS V14.01,2013-04-11 20:15:00,
2013-04-11 15:20:00,39.2,36.0,28.64,WNW,292,1.6,2.7,88,0.00,,---,0.00,VWS V14.01,2013-04-11 20:20:00,
2013-04-11 15:25:00,39.4,36.1,28.64,WNW,292,2.0,2.0,88,0.00,,---,0.00,VWS V14.01,2013-04-11 20:25:00,
2013-04-11 15:30:00,39.6,36.0,28.64,NW,315,0.9,2.7,87,0.00,,---,0.00,VWS V14.01,2013-04-11 20:30:00,
2013-04-11 15:35:00,39.4,35.5,28.64,WNW,292,2.9,2.9,86,0.00,,---,0.00,VWS V14.01,2013-04-11 20:35:00,
2013-04-11 15:40:00,38.7,34.5,28.64,WNW,292,3.1,3.4,85,0.00,,---,0.00,VWS V14.01,2013-04-11 20:40:00,
2013-04-11 15:45:00,38.1,34.0,28.64,WNW,292,1.1,1.6,85,0.00,,---,0.00,VWS V14.01,2013-04-11 20:45:00,
2013-04-11 15:51:00,38.5,35.0,28.64,WSW,248,1.1,1.6,87,0.00,,---,0.00,VWS V14.01,2013-04-11 20:51:00,
2013-04-11 15:56:00,39.2,36.2,28.64,WNW,292,1.3,2.2,89,0.00,,---,0.00,VWS V14.01,2013-04-11 20:56:00,
2013-04-11 16:01:00,39.7,37.3,28.64,WNW,292,2.5,2.5,91,0.00,,---,0.00,VWS V14.01,2013-04-11 21:01:00,
2013-04-11 16:06:00,40.1,37.7,28.64,WNW,292,1.6,1.6,91,0.00,,---,0.00,VWS V14.01,2013-04-11 21:06:00,
2013-04-11 16:11:00,40.3,37.3,28.64,WNW,292,0.0,0.0,89,0.00,,---,0.00,VWS V14.01,2013-04-11 21:11:00,
2013-04-11 16:16:00,40.3,37.0,28.64,WNW,292,0.9,1.1,88,0.00,,---,0.00,VWS V14.01,2013-04-11 21:16:00,
2013-04-11 16:21:00,40.1,36.3,28.64,NNW,338,1.3,2.7,86,0.00,,---,0.00,VWS V14.01,2013-04-11 21:21:00,
2013-04-11 16:26:00,39.7,35.0,28.64,WNW,292,0.0,2.5,83,0.00,,---,0.00,VWS V14.01,2013-04-11 21:26:00,
2013-04-11 16:32:00,39.6,34.8,28.64,WNW,292,1.3,2.5,83,0.00,,---,0.00,VWS V14.01,2013-04-11 21:32:00,
2013-04-11 16:37:00,39.4,34.7,28.64,WNW,292,1.6,1.6,83,0.00,,---,0.00,VWS V14.01,2013-04-11 21:37:00,
2013-04-11 16:42:00,38.8,33.8,28.64,WNW,292,1.3,2.9,82,0.00,,---,0.00,VWS V14.01,2013-04-11 21:42:00,
2013-04-11 16:47:00,38.5,34.1,28.64,WNW,292,2.7,2.7,84,0.00,,---,0.00,VWS V14.01,2013-04-11 21:47:00,
2013-04-11 16:52:00,38.1,34.0,28.64,WNW,292,1.1,1.6,85,0.00,,---,0.00,VWS V14.01,2013-04-11 21:52:00,
2013-04-11 16:57:00,37.8,34.0,28.64,WNW,292,2.0,2.5,86,0.00,,---,0.00,VWS V14.01,2013-04-11 21:57:00,
2013-04-11 17:02:00,37.4,33.9,28.64,WNW,292,1.1,1.1,87,0.00,,---,0.00,VWS V14.01,2013-04-11 22:02:00,
2013-04-11 17:07:00,37.0,34.1,28.64,WNW,292,3.4,3.4,89,0.00,,---,0.00,VWS V14.01,2013-04-11 22:07:00,
2013-04-11 17:12:00,36.9,33.9,28.64,WNW,292,2.9,2.9,89,0.00,,---,0.00,VWS V14.01,2013-04-11 22:12:00,
2013-04-11 17:17:00,36.7,34.3,28.64,WNW,292,2.5,2.5,91,0.00,,---,0.00,VWS V14.01,2013-04-11 22:17:00,
2013-04-11 17:22:00,36.7,34.6,28.64,WNW,292,1.6,1.6,92,0.00,,---,0.00,VWS V14.01,2013-04-11 22:22:00,
2013-04-11 17:27:00,36.9,35.3,28.64,WNW,292,2.5,2.5,94,0.00,,---,0.00,VWS V14.01,2013-04-11 22:27:00,
2013-04-11 17:32:00,36.9,35.6,28.64,WNW,292,2.0,2.0,95,0.00,,---,0.00,VWS V14.01,2013-04-11 22:32:00,
2013-04-11 17:37:00,37.2,35.9,28.64,WNW,292,2.5,2.5,95,0.00,,---,0.00,VWS V14.01,2013-04-11 22:37:00,
2013-04-11 17:42:00,37.4,36.4,28.64,WNW,292,2.0,2.5,96,0.00,,---,0.00,VWS V14.01,2013-04-11 22:42:00,
2013-04-11 17:47:00,37.4,36.1,28.64,NW,315,1.1,1.1,95,0.00,,---,0.00,VWS V14.01,2013-04-11 22:47:00,
2013-04-11 17:53:00,37.8,36.5,28.64,WNW,292,0.9,0.9,95,0.00,,---,0.00,VWS V14.01,2013-04-11 22:53:00,
2013-04-11 17:58:00,37.9,36.4,28.64,WNW,292,0.9,0.9,94,0.00,,---,0.00,VWS V14.01,2013-04-11 22:58:00,
2013-04-11 18:03:00,37.9,36.1,28.61,WNW,292,0.9,1.3,93,0.00,,---,0.00,VWS V14.01,2013-04-11 23:03:00,
2013-04-11 18:08:00,37.9,35.8,28.61,WNW,292,0.0,0.0,92,0.00,,---,0.00,VWS V14.01,2013-04-11 23:08:00,
2013-04-11 18:13:00,37.9,35.5,28.61,WNW,292,0.9,2.0,91,0.00,,---,0.00,VWS V14.01,2013-04-11 23:13:00,
2013-04-11 18:18:00,37.8,34.8,28.61,WNW,292,2.5,2.5,89,0.00,,---,0.00,VWS V14.01,2013-04-11 23:18:00,
2013-04-11 18:23:00,37.6,34.3,28.61,WNW,292,2.5,2.9,88,0.00,,---,0.00,VWS V14.01,2013-04-11 23:23:00,
2013-04-11 18:28:00,37.6,34.1,28.61,WNW,292,2.9,2.9,87,0.00,,---,0.00,VWS V14.01,2013-04-11 23:28:00,
2013-04-11 18:33:00,37.6,33.8,28.61,NW,315,1.1,1.3,86,0.00,,---,0.00,VWS V14.01,2013-04-11 23:33:00,
2013-04-11 18:38:00,37.6,34.1,28.61,West,270,2.2,2.2,87,0.00,,---,0.00,VWS V14.01,2013-04-11 23:38:00,
2013-04-11 18:43:00,37.8,34.2,28.61,WNW,292,3.1,3.1,87,0.00,,---,0.00,VWS V14.01,2013-04-11 23:43:00,
2013-04-11 18:48:00,37.8,34.2,28.61,NW,315,0.0,0.0,87,0.00,,---,0.00,VWS V14.01,2013-04-11 23:48:00,
2013-04-11 18:54:00,37.8,34.0,28.61,WNW,292,2.0,3.4,86,0.00,,---,0.00,VWS V14.01,2013-04-11 23:54:00,
2013-04-11 18:59:00,37.6,33.5,28.61,WNW,292,1.3,2.5,85,0.00,,---,0.00,VWS V14.01,2013-04-11 23:59:00,
2013-04-11 19:04:00,37.6,33.5,28.61,West,270,0.9,1.3,85,0.00,,---,0.00,VWS V14.01,2013-04-12 00:04:00,
2013-04-11 19:09:00,37.6,33.5,28.61,WNW,292,0.0,2.5,85,0.00,,---,0.00,VWS V14.01,2013-04-12 00:09:00,
2013-04-11 19:14:00,37.4,33.3,28.61,WNW,292,2.0,2.9,85,0.00,,---,0.00,VWS V14.01,2013-04-12 00:14:00,
2013-04-11 19:19:00,37.4,33.3,28.61,WNW,292,1.6,1.6,85,0.00,,---,0.00,VWS V14.01,2013-04-12 00:19:00,
2013-04-11 19:24:00,37.2,33.1,28.61,WNW,292,1.6,1.6,85,0.00,,---,0.00,VWS V14.01,2013-04-12 00:24:00,
2013-04-11 19:29:00,37.0,33.2,28.64,WNW,292,1.1,1.3,86,0.00,,---,0.00,VWS V14.01,2013-04-12 00:29:00,
2013-04-11 19:34:00,37.0,33.2,28.64,WNW,292,2.7,2.7,86,0.00,,---,0.00,VWS V14.01,2013-04-12 00:34:00,
2013-04-11 19:39:00,37.0,33.2,28.64,WNW,292,0.0,2.0,86,0.00,,---,0.00,VWS V14.01,2013-04-12 00:39:00,
2013-04-11 19:44:00,37.0,33.2,28.64,West,270,1.1,1.6,86,0.00,,---,0.00,VWS V14.01,2013-04-12 00:44:00,
2013-04-11 19:49:00,37.0,33.2,28.64,ENE,68,1.1,1.3,86,0.00,,---,0.00,VWS V14.01,2013-04-12 00:49:00,
2013-04-11 19:54:00,37.0,33.2,28.64,WNW,292,1.3,1.3,86,0.00,,---,0.00,VWS V14.01,2013-04-12 00:54:00,
2013-04-11 19:59:00,36.9,33.1,28.64,WNW,292,1.1,1.3,86,0.00,,---,0.00,VWS V14.01,2013-04-12 00:59:00,
2013-04-11 20:04:00,36.9,33.1,28.64,West,270,0.0,0.0,86,0.00,,---,0.00,VWS V14.01,2013-04-12 01:04:00,
2013-04-11 20:10:00,36.9,33.4,28.64,WNW,292,1.3,1.3,87,0.00,,---,0.00,VWS V14.01,2013-04-12 01:10:00,
2013-04-11 20:15:00,36.7,33.2,28.64,WNW,292,0.0,0.0,87,0.00,,---,0.00,VWS V14.01,2013-04-12 01:15:00,
2013-04-11 20:20:00,36.7,33.2,28.64,WNW,292,0.0,0.0,87,0.00,,---,0.00,VWS V14.01,2013-04-12 01:20:00,
2013-04-11 20:25:00,36.7,33.2,28.64,NNW,338,0.0,0.9,87,0.00,,---,0.00,VWS V14.01,2013-04-12 01:25:00,
2013-04-11 20:30:00,36.7,33.2,28.64,NNW,338,0.0,0.0,87,0.00,,---,0.00,VWS V14.01,2013-04-12 01:30:00,
2013-04-11 20:35:00,36.7,33.5,28.64,NNW,338,0.0,0.0,88,0.00,,---,0.00,VWS V14.01,2013-04-12 01:35:00,
2013-04-11 20:40:00,36.7,33.5,28.64,WNW,292,0.0,0.0,88,0.00,,---,0.00,VWS V14.01,2013-04-12 01:40:00,
2013-04-11 20:45:00,36.7,33.5,28.64,WSW,248,0.9,1.3,88,0.00,,---,0.00,VWS V14.01,2013-04-12 01:45:00,
2013-04-11 20:50:00,36.7,33.5,28.64,West,270,0.0,0.0,88,0.00,,---,0.00,VWS V14.01,2013-04-12 01:50:00,
2013-04-11 20:55:00,36.7,33.5,28.64,West,270,0.0,1.6,88,0.00,,---,0.00,VWS V14.01,2013-04-12 01:55:00,
2013-04-11 21:01:00,36.7,33.5,28.64,WNW,292,0.0,0.0,88,0.00,,---,0.00,VWS V14.01,2013-04-12 02:01:00,
2013-04-11 21:06:00,36.7,33.5,28.64,WNW,292,2.0,2.2,88,0.00,,---,0.00,VWS V14.01,2013-04-12 02:06:00,
2013-04-11 21:11:00,36.7,33.8,28.64,WNW,292,0.0,0.0,89,0.00,,---,0.00,VWS V14.01,2013-04-12 02:11:00,
2013-04-11 21:16:00,36.7,33.8,28.64,NW,315,0.0,0.0,89,0.00,,---,0.00,VWS V14.01,2013-04-12 02:16:00,
2013-04-11 21:21:00,36.5,33.6,28.64,WNW,292,1.6,1.6,89,0.00,,---,0.00,VWS V14.01,2013-04-12 02:21:00,
2013-04-11 21:27:00,36.5,33.6,28.64,NW,315,0.0,1.1,89,0.00,,---,0.00,VWS V14.01,2013-04-12 02:27:00,
2013-04-11 21:32:00,36.5,33.8,28.64,NW,315,0.0,0.0,90,0.00,,---,0.00,VWS V14.01,2013-04-12 02:32:00,
2013-04-11 21:37:00,36.3,33.7,28.64,NW,315,0.9,0.9,90,0.00,,---,0.00,VWS V14.01,2013-04-12 02:37:00,
2013-04-11 21:42:00,36.3,34.0,28.64,NW,315,1.1,1.3,91,0.00,,---,0.00,VWS V14.01,2013-04-12 02:42:00,
2013-04-11 21:47:00,36.3,34.0,28.64,NW,315,0.0,0.0,91,0.00,,---,0.00,VWS V14.01,2013-04-12 02:47:00,
2013-04-11 21:52:00,36.1,34.0,28.64,WNW,292,0.0,0.0,92,0.00,,---,0.00,VWS V14.01,2013-04-12 02:52:00,
2013-04-11 21:57:00,36.3,34.2,28.64,WNW,292,0.0,0.0,92,0.00,,---,0.00,VWS V14.01,2013-04-12 02:57:00,
2013-04-11 22:02:00,36.3,34.5,28.64,WNW,292,0.0,0.0,93,0.00,,---,0.00,VWS V14.01,2013-04-12 03:02:00,
2013-04-11 22:07:00,36.1,34.3,28.64,WNW,292,0.0,0.0,93,0.00,,---,0.00,VWS V14.01,2013-04-12 03:07:00,
2013-04-11 22:12:00,36.1,34.6,28.64,NNW,338,0.9,0.9,94,0.00,,---,0.00,VWS V14.01,2013-04-12 03:12:00,
2013-04-11 22:17:00,36.1,34.6,28.64,NNW,338,0.0,0.0,94,0.00,,---,0.00,VWS V14.01,2013-04-12 03:17:00,
2013-04-11 22:22:00,36.3,34.8,28.64,NNE,22,0.0,0.0,94,0.00,,---,0.00,VWS V14.01,2013-04-12 03:22:00,
2013-04-11 22:27:00,36.3,35.0,28.64,NNE,22,0.0,0.0,95,0.00,,---,0.00,VWS V14.01,2013-04-12 03:27:00,
2013-04-11 22:32:00,36.3,35.0,28.64,North,0,0.0,0.0,95,0.00,,---,0.00,VWS V14.01,2013-04-12 03:32:00,
2013-04-11 22:37:00,36.3,35.0,28.64,NW,315,0.0,0.0,95,0.00,,---,0.00,VWS V14.01,2013-04-12 03:37:00,
2013-04-11 22:43:00,36.3,35.3,28.64,NW,315,0.0,0.0,96,0.00,,---,0.00,VWS V14.01,2013-04-12 03:43:00,
2013-04-11 22:48:00,36.3,35.3,28.61,WNW,292,0.0,0.0,96,0.00,,---,0.00,VWS V14.01,2013-04-12 03:48:00,
2013-04-11 22:53:00,36.5,35.7,28.61,NW,315,1.1,2.7,97,0.00,,---,0.00,VWS V14.01,2013-04-12 03:53:00,
2013-04-11 22:58:00,36.5,36.0,28.64,WNW,292,2.5,2.5,98,0.00,,---,0.00,VWS V14.01,2013-04-12 03:58:00,
2013-04-11 23:00:00,36.5,36.0,28.64,WNW,292,2.0,2.7,98,0.00,,---,0.00,VWS V14.01,2013-04-12 04:00:00,
2013-04-11 23:01:00,36.5,36.0,28.64,WNW,292,1.3,1.3,98,0.00,,---,0.00,VWS V14.01,2013-04-12 04:01:00,
2013-04-11 23:06:00,36.5,36.0,28.64,WNW,292,1.6,1.6,98,0.00,,---,0.00,VWS V14.01,2013-04-12 04:06:00,
2013-04-11 23:12:00,36.5,36.0,28.64,WNW,292,3.4,3.4,98,0.00,,---,0.00,VWS V14.01,2013-04-12 04:12:00,
2013-04-11 23:17:00,36.7,36.2,28.61,WNW,292,1.6,1.6,98,0.00,,---,0.00,VWS V14.01,2013-04-12 04:17:00,
2013-04-11 23:22:00,36.5,36.0,28.61,WNW,292,2.0,2.0,98,0.00,,---,0.00,VWS V14.01,2013-04-12 04:22:00,
2013-04-11 23:27:00,36.5,36.0,28.61,WNW,292,1.6,2.7,98,0.00,,---,0.00,VWS V14.01,2013-04-12 04:27:00,
2013-04-11 23:32:00,36.5,36.0,28.64,WNW,292,2.0,2.0,98,0.00,,---,0.00,VWS V14.01,2013-04-12 04:32:00,
2013-04-11 23:37:00,36.5,36.0,28.64,WNW,292,0.9,1.6,98,0.00,,---,0.00,VWS V14.01,2013-04-12 04:37:00,
2013-04-11 23:42:00,36.5,36.0,28.64,WNW,292,2.9,2.9,98,0.00,,---,0.00,VWS V14.01,2013-04-12 04:42:00,
2013-04-11 23:47:00,36.5,36.0,28.64,WNW,292,2.9,2.9,98,0.00,,---,0.00,VWS V14.01,2013-04-12 04:47:00,
2013-04-11 23:52:00,36.5,36.0,28.64,WNW,292,3.4,3.4,98,0.00,,---,0.00,VWS V14.01,2013-04-12 04:52:00,
2013-04-11 23:57:00,36.5,36.0,28.64,WNW,292,2.0,2.0,98,0.00,,---,0.00,VWS V14.01,2013-04-12 04:57:00,